Time;durP1;ratioP1;P1;durP2;ratioP2;P2;SDS_P1;SDS_P2;PMS_P1;PMS_P2;Temp;Humidity;BMP_temperature;BMP_pressure;BME280_temperature;BME280_humidity;BME280_pressure;Samples;Min_cycle;Max_cycle;Signal;HPM_P1;HPM_P2
2022/07/18 00:09:11;;;;;;;8.20;3.00;;;;;;;;;;21167182;28;20094;-62
2022/07/18 00:19:13;;;;;;;10.38;5.45;;;;;;;;;;21166860;28;20055;-63
2022/07/18 00:29:15;;;;;;;5.82;3.15;;;;;;;;;;21147505;28;20091;-60
2022/07/18 00:39:17;;;;;;;6.22;2.75;;;;;;;;;;21147548;28;20047;-63
2022/07/18 00:49:19;;;;;;;13.07;3.10;;;;;;;;;;21164757;28;20151;-64
2022/07/18 00:59:21;;;;;;;4.45;3.08;;;;;;;;;;21163686;28;20499;-63
2022/07/18 01:09:23;;;;;;;6.13;3.13;;;;;;;;;;21162761;28;20525;-62
2022/07/18 01:19:25;;;;;;;5.82;3.42;;;;;;;;;;21162837;28;20056;-62
2022/07/18 01:29:28;;;;;;;4.82;2.90;;;;;;;;;;21162791;28;20403;-63
2022/07/18 01:39:30;;;;;;;4.95;3.10;;;;;;;;;;21174870;28;20051;-68
2022/07/18 01:49:35;;;;;;;9.45;3.33;;;;;;;;;;21179827;28;20518;-67
2022/07/18 01:59:38;;;;;;;3.50;2.90;;;;;;;;;;21177755;28;20487;-61
2022/07/18 02:09:41;;;;;;;5.05;2.80;;;;;;;;;;21176788;28;20052;-69
2022/07/18 02:19:44;;;;;;;5.45;2.70;;;;;;;;;;21176302;28;20047;-66
2022/07/18 02:29:47;;;;;;;5.43;3.20;;;;;;;;;;21176622;28;20134;-63
2022/07/18 02:39:50;;;;;;;3.35;3.05;;;;;;;;;;21175591;28;20139;-60
2022/07/18 02:49:52;;;;;;;5.78;3.30;;;;;;;;;;21174316;28;20044;-61
2022/07/18 03:00:00;;;;;;;3.22;2.92;;;;;;;;;;21173515;28;20062;-62
2022/07/18 03:10:03;;;;;;;3.55;3.22;;;;;;;;;;21172131;28;20069;-61
2022/07/18 03:20:05;;;;;;;4.15;3.00;;;;;;;;;;21171910;28;20075;-63
2022/07/18 03:30:07;;;;;;;5.95;3.17;;;;;;;;;;21172403;28;20189;-70
2022/07/18 03:40:10;;;;;;;4.20;2.50;;;;;;;;;;21177799;28;20047;-63
2022/07/18 03:50:13;;;;;;;3.72;2.80;;;;;;;;;;21169241;28;20043;-61
2022/07/18 04:00:15;;;;;;;2.97;2.67;;;;;;;;;;21167439;28;20047;-62
2022/07/18 04:10:17;;;;;;;4.13;3.22;;;;;;;;;;21167488;28;20100;-62
2022/07/18 04:20:21;;;;;;;4.53;3.30;;;;;;;;;;21168071;28;20192;-62
2022/07/18 04:30:25;;;;;;;4.70;3.03;;;;;;;;;;21167853;28;20047;-62
2022/07/18 04:40:27;;;;;;;4.75;2.95;;;;;;;;;;21166089;28;20517;-62
2022/07/18 04:50:32;;;;;;;6.72;2.83;;;;;;;;;;21165393;28;20051;-63
2022/07/18 05:00:34;;;;;;;7.20;2.80;;;;;;;;;;21164108;28;20044;-63
2022/07/18 05:10:36;;;;;;;4.93;3.00;;;;;;;;;;21163113;28;20056;-63
2022/07/18 05:20:39;;;;;;;3.45;3.08;;;;;;;;;;21163204;28;20074;-62
2022/07/18 05:30:40;;;;;;;3.28;2.97;;;;;;;;;;21163256;28;20181;-63
2022/07/18 05:40:45;;;;;;;6.30;2.80;;;;;;;;;;21163103;28;20055;-66
2022/07/18 05:50:46;;;;;;;7.43;2.95;;;;;;;;;;21161971;28;20581;-66
2022/07/18 06:00:49;;;;;;;5.18;2.65;;;;;;;;;;21161397;28;20106;-65
2022/07/18 06:10:51;;;;;;;5.53;3.15;;;;;;;;;;21161998;28;20079;-66
2022/07/18 06:20:53;;;;;;;5.30;2.90;;;;;;;;;;21165218;28;20473;-66
2022/07/18 06:30:55;;;;;;;5.50;2.95;;;;;;;;;;21175470;28;20058;-66
2022/07/18 06:40:57;;;;;;;7.28;3.33;;;;;;;;;;21176104;28;20103;-64
2022/07/18 06:51:00;;;;;;;8.05;4.05;;;;;;;;;;21175551;28;20040;-67
2022/07/18 07:01:02;;;;;;;6.00;2.80;;;;;;;;;;21173824;28;20484;-62
2022/07/18 07:11:05;;;;;;;4.32;2.95;;;;;;;;;;21172156;28;20579;-63
2022/07/18 07:21:08;;;;;;;5.97;2.70;;;;;;;;;;21171765;28;20130;-63
2022/07/18 07:31:11;;;;;;;5.90;2.75;;;;;;;;;;21170670;28;20067;-61
2022/07/18 07:41:13;;;;;;;4.13;2.88;;;;;;;;;;21170944;28;20055;-63
2022/07/18 07:51:16;;;;;;;7.00;2.50;;;;;;;;;;21169887;28;20048;-61
2022/07/18 08:01:19;;;;;;;4.10;2.75;;;;;;;;;;21168947;28;20479;-61
2022/07/18 08:11:22;;;;;;;3.65;2.38;;;;;;;;;;21167144;28;20126;-63
2022/07/18 08:21:24;;;;;;;5.57;2.72;;;;;;;;;;21167730;28;20111;-63
2022/07/18 08:31:28;;;;;;;3.70;2.40;;;;;;;;;;21148801;28;20079;-63
2022/07/18 08:41:31;;;;;;;5.43;2.70;;;;;;;;;;21166092;28;20083;-62
2022/07/18 08:51:34;;;;;;;6.78;2.55;;;;;;;;;;21164413;28;20128;-64
2022/07/18 09:01:36;;;;;;;7.25;2.40;;;;;;;;;;21165125;28;20048;-65
2022/07/18 09:11:50;;;;;;;5.60;2.90;;;;;;;;;;21163556;28;20055;-63
2022/07/18 09:21:52;;;;;;;4.28;2.90;;;;;;;;;;21162605;28;20075;-60
2022/07/18 09:31:55;;;;;;;5.75;2.72;;;;;;;;;;21162667;28;20054;-58
2022/07/18 09:42:17;;;;;;;5.72;2.50;;;;;;;;;;21163699;28;20130;-61
2022/07/18 09:52:19;;;;;;;7.15;2.90;;;;;;;;;;21157581;28;20055;-65
2022/07/18 10:02:22;;;;;;;6.28;2.85;;;;;;;;;;21150746;28;20442;-62
2022/07/18 10:12:24;;;;;;;6.72;3.15;;;;;;;;;;21146455;28;20063;-61
2022/07/18 10:22:27;;;;;;;6.32;3.10;;;;;;;;;;21176760;28;20051;-62
2022/07/18 10:32:33;;;;;;;7.57;3.00;;;;;;;;;;21175588;28;20040;-61
2022/07/18 10:42:36;;;;;;;8.60;3.15;;;;;;;;;;21111654;28;20404;-60
2022/07/18 10:52:38;;;;;;;6.85;3.20;;;;;;;;;;21129378;28;20048;-59
2022/07/18 11:02:42;;;;;;;5.88;3.22;;;;;;;;;;21151220;27;20058;-61
2022/07/18 11:12:44;;;;;;;4.47;3.30;;;;;;;;;;21166967;28;20407;-61
2022/07/18 11:22:47;;;;;;;9.80;3.83;;;;;;;;;;21168481;28;20055;-60
2022/07/18 11:32:49;;;;;;;6.47;3.33;;;;;;;;;;21164937;28;20052;-60
2022/07/18 11:42:51;;;;;;;7.18;2.95;;;;;;;;;;21169461;28;20380;-71
2022/07/18 11:52:58;;;;;;;5.20;3.33;;;;;;;;;;21169838;28;20058;-69
2022/07/18 12:03:14;;;;;;;5.22;3.13;;;;;;;;;;21168356;28;20055;-69
2022/07/18 12:13:19;;;;;;;6.78;3.13;;;;;;;;;;21167247;28;20052;-66
2022/07/18 12:23:40;;;;;;;5.82;3.15;;;;;;;;;;21173544;28;20492;-69
2022/07/18 12:34:12;;;;;;;7.00;2.92;;;;;;;;;;21166665;28;20415;-67
2022/07/18 12:44:19;;;;;;;5.03;3.20;;;;;;;;;;21165894;28;20462;-66
2022/07/18 12:54:41;;;;;;;5.90;2.30;;;;;;;;;;21149077;28;20097;-68
2022/07/18 13:05:02;;;;;;;8.98;2.50;;;;;;;;;;21165386;28;20055;-69
2022/07/18 13:15:24;;;;;;;6.60;3.20;;;;;;;;;;21172153;28;20138;-67
2022/07/18 13:25:45;;;;;;;5.13;2.60;;;;;;;;;;21163211;28;20047;-69
2022/07/18 13:36:07;;;;;;;8.45;3.38;;;;;;;;;;21203672;27;20053;-70
2022/07/18 13:46:28;;;;;;;2.92;2.22;;;;;;;;;;21264057;27;20046;-69
2022/07/18 13:56:50;;;;;;;6.30;2.42;;;;;;;;;;21264928;27;20054;-67
2022/07/18 14:07:12;;;;;;;7.75;2.55;;;;;;;;;;21262823;27;20051;-73
2022/07/18 14:17:34;;;;;;;5.07;2.42;;;;;;;;;;21263562;27;20111;-69
2022/07/18 14:27:56;;;;;;;5.03;2.25;;;;;;;;;;21245072;27;20058;-68
2022/07/18 14:38:17;;;;;;;5.68;2.50;;;;;;;;;;21244494;27;20047;-73
2022/07/18 14:48:23;;;;;;;12.05;2.58;;;;;;;;;;21257914;27;20058;-69
2022/07/18 14:58:36;;;;;;;;;;;;;;;;;;21259867;27;20047;-69
2022/07/18 15:08:48;;;;;;;4.22;2.30;;;;;;;;;;21257167;27;19978;-69
2022/07/18 15:18:56;;;;;;;10.68;3.22;;;;;;;;;;21257217;27;20054;-69
2022/07/18 15:29:02;;;;;;;5.15;2.90;;;;;;;;;;21257253;27;20055;-69
2022/07/18 15:39:08;;;;;;;4.88;2.92;;;;;;;;;;21256073;27;20073;-70
2022/07/18 15:49:15;;;;;;;7.20;3.00;;;;;;;;;;21254136;27;20054;-68
2022/07/18 15:59:18;;;;;;;5.90;2.83;;;;;;;;;;21254652;27;20535;-75
2022/07/18 16:09:22;;;;;;;9.80;3.93;;;;;;;;;;21256519;27;20062;-75
2022/07/18 16:19:25;;;;;;;6.38;2.25;;;;;;;;;;21236810;27;20120;-72
2022/07/18 16:29:27;;;;;;;8.57;2.50;;;;;;;;;;21251208;27;20519;-70
2022/07/18 16:39:30;;;;;;;4.60;2.37;;;;;;;;;;21250456;27;20043;-71
2022/07/18 16:49:32;;;;;;;7.88;3.03;;;;;;;;;;21251312;27;20157;-71
2022/07/18 16:59:35;;;;;;;4.27;2.40;;;;;;;;;;21257330;27;20096;-69
2022/07/18 17:09:38;;;;;;;20.30;2.40;;;;;;;;;;21248133;27;20051;-70
2022/07/18 17:19:41;;;;;;;6.27;2.53;;;;;;;;;;21248104;27;20050;-67
2022/07/18 17:29:44;;;;;;;;;;;;;;;;;;21248786;28;20047;-74
2022/07/18 17:39:52;;;;;;;4.18;2.72;;;;;;;;;;21247704;28;19926;-70
2022/07/18 17:49:55;;;;;;;9.98;2.28;;;;;;;;;;21248518;28;20057;-70
2022/07/18 17:59:57;;;;;;;7.38;2.38;;;;;;;;;;21246192;28;20043;-66
2022/07/18 18:09:59;;;;;;;10.57;3.07;;;;;;;;;;21188768;28;20047;-63
2022/07/18 18:20:01;;;;;;;5.60;2.55;;;;;;;;;;21167308;27;20052;-64
2022/07/18 18:30:05;;;;;;;5.43;2.35;;;;;;;;;;21175265;28;20119;-69
2022/07/18 18:40:08;;;;;;;3.25;2.22;;;;;;;;;;21174010;28;20108;-68
2022/07/18 18:50:11;;;;;;;11.48;2.97;;;;;;;;;;21173044;28;20052;-67
2022/07/18 19:00:21;;;;;;;8.65;2.97;;;;;;;;;;21174243;28;20150;-71
2022/07/18 19:10:23;;;;;;;6.18;2.35;;;;;;;;;;21172188;28;20052;-66
2022/07/18 19:20:25;;;;;;;6.38;2.63;;;;;;;;;;21139788;28;20052;-62
2022/07/18 19:30:29;;;;;;;9.68;2.63;;;;;;;;;;21085960;28;20555;-58
2022/07/18 19:40:31;;;;;;;15.07;5.47;;;;;;;;;;21097678;27;20054;-67
2022/07/18 19:50:33;;;;;;;6.65;2.75;;;;;;;;;;21084283;28;20052;-65
2022/07/18 20:00:37;;;;;;;11.52;3.10;;;;;;;;;;21084712;28;20454;-67
2022/07/18 20:10:39;;;;;;;;;;;;;;;;;;21083443;28;20097;-61
2022/07/18 20:20:41;;;;;;;7.88;3.40;;;;;;;;;;21084571;28;19931;-65
2022/07/18 20:30:43;;;;;;;9.30;2.83;;;;;;;;;;21082409;28;20052;-59
2022/07/18 20:40:45;;;;;;;7.20;3.63;;;;;;;;;;21083938;28;20464;-69
2022/07/18 20:50:47;;;;;;;8.23;3.65;;;;;;;;;;21080969;28;20051;-57
2022/07/18 21:00:49;;;;;;;10.68;3.25;;;;;;;;;;21079742;28;20100;-56
2022/07/18 21:10:52;;;;;;;9.20;3.53;;;;;;;;;;21060607;28;20474;-62
2022/07/18 21:20:54;;;;;;;8.20;3.05;;;;;;;;;;21060179;28;20082;-61
2022/07/18 21:30:57;;;;;;;9.88;3.55;;;;;;;;;;21171740;28;20124;-59
2022/07/18 21:40:59;;;;;;;8.43;4.80;;;;;;;;;;21248002;28;20087;-55
2022/07/18 21:51:01;;;;;;;7.50;3.30;;;;;;;;;;21250020;27;20054;-57
2022/07/18 22:01:04;;;;;;;9.68;3.90;;;;;;;;;;21251593;27;20104;-57
2022/07/18 22:11:07;;;;;;;6.68;4.10;;;;;;;;;;21258473;27;20499;-55
2022/07/18 22:21:09;;;;;;;9.10;4.78;;;;;;;;;;21262145;27;20079;-56
2022/07/18 22:31:12;;;;;;;11.68;4.15;;;;;;;;;;21262157;27;20062;-55
2022/07/18 22:41:14;;;;;;;13.68;4.00;;;;;;;;;;21260762;27;20140;-56
2022/07/18 22:51:16;;;;;;;8.55;4.15;;;;;;;;;;21259260;27;20081;-56
2022/07/18 23:01:18;;;;;;;10.73;4.40;;;;;;;;;;21258149;27;20096;-55
2022/07/18 23:11:20;;;;;;;11.90;4.45;;;;;;;;;;21257702;27;20147;-56
2022/07/18 23:21:23;;;;;;;8.50;3.42;;;;;;;;;;21257751;27;20054;-56
2022/07/18 23:31:25;;;;;;;7.32;3.60;;;;;;;;;;21238578;27;20533;-54
2022/07/18 23:41:27;;;;;;;11.10;3.40;;;;;;;;;;21256254;27;20047;-56
2022/07/18 23:51:29;;;;;;;10.40;3.10;;;;;;;;;;21255383;27;20039;-57
